createdAt,value
2018-06-14T00:00:20.686Z,0
2018-06-14T00:00:46.854Z,0
2018-06-14T00:01:13.018Z,0
2018-06-14T00:01:39.153Z,0
2018-06-14T00:02:05.308Z,0
2018-06-14T00:02:31.447Z,0
2018-06-14T00:02:57.593Z,0
2018-06-14T00:03:23.727Z,0
2018-06-14T00:03:49.883Z,0
2018-06-14T00:04:16.020Z,0
2018-06-14T00:04:42.164Z,0
2018-06-14T00:05:08.309Z,0
2018-06-14T00:05:34.491Z,0
2018-06-14T00:06:00.636Z,0
2018-06-14T00:06:26.767Z,0
2018-06-14T00:06:52.910Z,0
2018-06-14T00:07:19.781Z,0
2018-06-14T00:07:46.046Z,0
2018-06-14T00:08:12.230Z,0
2018-06-14T00:08:38.376Z,0
2018-06-14T00:09:04.504Z,0
2018-06-14T00:09:30.643Z,0
2018-06-14T00:09:56.783Z,0
2018-06-14T00:10:22.936Z,0
2018-06-14T00:10:49.104Z,0
2018-06-14T00:11:15.238Z,0
2018-06-14T00:11:41.375Z,0
2018-06-14T00:12:07.510Z,0
2018-06-14T00:12:33.656Z,0
2018-06-14T00:12:59.792Z,0
2018-06-14T00:13:25.959Z,0
2018-06-14T00:13:52.098Z,0
2018-06-14T00:14:18.265Z,0
2018-06-14T00:14:44.405Z,0
2018-06-14T00:15:10.571Z,0
2018-06-14T00:15:36.733Z,0
2018-06-14T00:16:02.871Z,0
2018-06-14T00:16:29.012Z,0
2018-06-14T00:16:55.146Z,0
2018-06-14T00:17:21.340Z,0
2018-06-14T00:17:47.424Z,0
2018-06-14T00:18:13.588Z,0
2018-06-14T00:18:39.751Z,0
2018-06-14T00:19:05.914Z,0
2018-06-14T00:19:32.026Z,0
2018-06-14T00:19:58.181Z,0
2018-06-14T00:20:24.348Z,0
2018-06-14T00:20:50.486Z,0
2018-06-14T00:21:16.621Z,0
2018-06-14T00:21:42.761Z,0
2018-06-14T00:22:08.904Z,0
2018-06-14T00:22:35.068Z,0
2018-06-14T00:23:01.200Z,0
2018-06-14T00:23:27.339Z,0
2018-06-14T00:23:53.503Z,0
2018-06-14T00:24:19.644Z,0
2018-06-14T00:24:45.779Z,0
2018-06-14T00:25:11.923Z,0
2018-06-14T00:25:38.060Z,0
2018-06-14T00:26:04.202Z,0
2018-06-14T00:26:30.340Z,0
2018-06-14T00:26:56.476Z,0
2018-06-14T00:27:22.613Z,0
2018-06-14T00:27:48.769Z,0
2018-06-14T00:28:14.915Z,0
2018-06-14T00:28:41.049Z,0
2018-06-14T00:29:07.221Z,0
2018-06-14T00:29:33.359Z,0
2018-06-14T00:29:59.501Z,0
2018-06-14T00:30:25.636Z,0
2018-06-14T00:30:51.768Z,0
2018-06-14T00:31:17.936Z,0
2018-06-14T00:31:44.081Z,0
2018-06-14T00:32:10.214Z,0
2018-06-14T00:32:36.352Z,0
2018-06-14T00:33:02.518Z,0
2018-06-14T00:33:28.661Z,0
2018-06-14T00:33:54.819Z,0
2018-06-14T00:34:20.983Z,0
2018-06-14T00:34:47.125Z,0
2018-06-14T00:35:13.265Z,0
2018-06-14T00:35:39.405Z,0
2018-06-14T00:36:05.558Z,0
2018-06-14T00:36:31.701Z,0
2018-06-14T00:36:57.838Z,0
2018-06-14T00:37:24.001Z,0
2018-06-14T00:37:50.158Z,0
2018-06-14T00:38:16.298Z,0
2018-06-14T00:38:42.441Z,0
2018-06-14T00:39:08.582Z,0
2018-06-14T00:39:34.755Z,0
2018-06-14T00:40:00.884Z,0
2018-06-14T00:40:27.020Z,0
2018-06-14T00:40:53.160Z,0
2018-06-14T00:41:19.306Z,0
2018-06-14T00:41:45.449Z,0
2018-06-14T00:42:11.581Z,0
2018-06-14T00:42:37.723Z,0
2018-06-14T00:43:03.862Z,0
2018-06-14T00:43:30.027Z,0
2018-06-14T00:43:56.168Z,0
2018-06-14T00:44:22.339Z,0
2018-06-14T00:44:48.477Z,0
2018-06-14T00:45:14.644Z,0
2018-06-14T00:45:40.777Z,0
2018-06-14T00:46:06.939Z,0
2018-06-14T00:46:33.078Z,0
2018-06-14T00:46:59.215Z,0
2018-06-14T00:47:25.358Z,0
2018-06-14T00:47:51.496Z,0
2018-06-14T00:48:17.638Z,0
2018-06-14T00:48:43.804Z,0
2018-06-14T00:49:09.948Z,0
2018-06-14T00:49:36.080Z,0
2018-06-14T00:50:02.222Z,0
2018-06-14T00:50:28.403Z,0
2018-06-14T00:50:54.565Z,0
2018-06-14T00:51:20.729Z,0
2018-06-14T00:51:46.885Z,0
2018-06-14T00:52:13.007Z,0
2018-06-14T00:52:39.151Z,0
2018-06-14T00:53:05.292Z,0
2018-06-14T00:53:31.426Z,0
2018-06-14T00:53:57.588Z,0
2018-06-14T00:54:23.726Z,0
2018-06-14T00:54:49.865Z,0
2018-06-14T00:55:16.002Z,0
2018-06-14T00:55:42.164Z,0
2018-06-14T00:56:08.297Z,0
2018-06-14T00:56:34.437Z,0
2018-06-14T00:57:00.583Z,0
2018-06-14T00:57:26.718Z,0
2018-06-14T00:57:52.869Z,0
2018-06-14T00:58:19.043Z,0
2018-06-14T00:58:45.174Z,0
2018-06-14T00:59:11.330Z,0
2018-06-14T00:59:37.469Z,0
2018-06-14T01:00:03.611Z,0
2018-06-14T01:00:29.750Z,0
2018-06-14T01:00:55.886Z,0
2018-06-14T01:01:22.028Z,0
2018-06-14T01:01:48.165Z,0
2018-06-14T01:02:14.328Z,0
2018-06-14T01:02:40.467Z,0
2018-06-14T01:03:06.598Z,0
2018-06-14T01:03:32.737Z,0
2018-06-14T01:03:58.871Z,0
2018-06-14T01:04:25.021Z,0
2018-06-14T01:04:51.158Z,0
2018-06-14T01:05:17.295Z,0
2018-06-14T01:05:43.461Z,0
2018-06-14T01:06:09.593Z,0
2018-06-14T01:06:35.734Z,0
2018-06-14T01:07:01.923Z,0
2018-06-14T01:07:28.086Z,0
2018-06-14T01:07:54.219Z,0
2018-06-14T01:08:20.360Z,0
2018-06-14T01:08:46.500Z,0
2018-06-14T01:09:12.677Z,0
2018-06-14T01:09:38.843Z,0
2018-06-14T01:10:04.977Z,0
2018-06-14T01:10:31.121Z,0
2018-06-14T01:10:57.261Z,0
2018-06-14T01:11:23.399Z,0
2018-06-14T01:11:49.542Z,0
2018-06-14T01:12:15.681Z,0
2018-06-14T01:12:41.824Z,0
2018-06-14T01:13:07.958Z,0
2018-06-14T01:13:34.095Z,0
2018-06-14T01:14:00.235Z,0
2018-06-14T01:14:26.379Z,0
2018-06-14T01:14:52.513Z,0
2018-06-14T01:15:18.677Z,0
2018-06-14T01:15:44.814Z,0
2018-06-14T01:16:10.957Z,0
2018-06-14T01:16:37.116Z,0
2018-06-14T01:17:03.250Z,0
2018-06-14T01:17:29.384Z,0
2018-06-14T01:17:55.548Z,0
2018-06-14T01:18:21.683Z,0
2018-06-14T01:18:47.823Z,0
2018-06-14T01:19:13.957Z,0
2018-06-14T01:19:40.123Z,0
2018-06-14T01:20:06.262Z,0
2018-06-14T01:20:32.400Z,0
2018-06-14T01:20:58.549Z,0
2018-06-14T01:21:24.674Z,0
2018-06-14T01:21:50.818Z,0
2018-06-14T01:22:17.004Z,0
2018-06-14T01:22:43.146Z,0
2018-06-14T01:23:09.286Z,0
2018-06-14T01:23:35.447Z,0
2018-06-14T01:24:01.580Z,0
2018-06-14T01:24:27.744Z,0
2018-06-14T01:24:53.877Z,0
2018-06-14T01:25:20.013Z,0
2018-06-14T01:25:46.152Z,0
2018-06-14T01:26:12.316Z,0
2018-06-14T01:26:38.456Z,0
2018-06-14T01:27:04.613Z,0
2018-06-14T01:27:30.743Z,0
2018-06-14T01:27:56.882Z,0
2018-06-14T01:28:23.020Z,0
2018-06-14T01:28:49.184Z,0
2018-06-14T01:29:15.332Z,0
2018-06-14T01:29:41.467Z,0
2018-06-14T01:30:07.606Z,0
2018-06-14T01:30:33.767Z,0
2018-06-14T01:30:59.908Z,0
2018-06-14T01:31:26.049Z,0
2018-06-14T01:31:52.184Z,0
2018-06-14T01:32:18.325Z,0
2018-06-14T01:32:44.467Z,0
2018-06-14T01:33:10.610Z,0
2018-06-14T01:33:36.770Z,0
2018-06-14T01:34:02.907Z,0
2018-06-14T01:34:29.089Z,0
2018-06-14T01:34:55.232Z,0
2018-06-14T01:35:21.375Z,0
2018-06-14T01:35:47.509Z,0
2018-06-14T01:36:13.652Z,0
2018-06-14T01:36:39.814Z,0
2018-06-14T01:37:05.961Z,0
2018-06-14T01:37:32.099Z,0
2018-06-14T01:37:58.236Z,0
2018-06-14T01:38:24.379Z,0
2018-06-14T01:38:50.516Z,0
2018-06-14T01:39:16.650Z,0
2018-06-14T01:39:42.793Z,0
2018-06-14T01:40:08.955Z,0
2018-06-14T01:40:35.087Z,0
2018-06-14T01:41:01.255Z,0
2018-06-14T01:41:27.393Z,0
2018-06-14T01:41:53.578Z,0
2018-06-14T01:42:19.718Z,0
2018-06-14T01:42:45.846Z,0
2018-06-14T01:43:11.982Z,0
2018-06-14T01:43:38.144Z,0
2018-06-14T01:44:04.275Z,0
2018-06-14T01:44:30.417Z,0
2018-06-14T01:44:56.575Z,0
2018-06-14T01:45:22.741Z,0
2018-06-14T01:45:48.905Z,0
2018-06-14T01:46:15.079Z,0
2018-06-14T01:46:41.217Z,0
2018-06-14T01:47:07.356Z,0
2018-06-14T01:47:33.509Z,0
2018-06-14T01:47:59.667Z,0
2018-06-14T01:48:25.835Z,0
2018-06-14T01:48:51.971Z,0
2018-06-14T01:49:18.110Z,0
2018-06-14T01:49:44.258Z,0
2018-06-14T01:50:10.400Z,0
2018-06-14T01:50:36.535Z,0
2018-06-14T01:51:02.699Z,0
2018-06-14T01:51:28.853Z,0
2018-06-14T01:51:55.000Z,0
2018-06-14T01:52:21.150Z,0
2018-06-14T01:52:47.311Z,0
2018-06-14T01:53:13.446Z,0
2018-06-14T01:53:39.607Z,0
2018-06-14T01:54:05.769Z,0
2018-06-14T01:54:31.903Z,0
2018-06-14T01:54:58.039Z,0
2018-06-14T01:55:24.177Z,0
2018-06-14T01:55:50.316Z,0
2018-06-14T01:56:16.503Z,0
2018-06-14T01:56:42.642Z,0
2018-06-14T01:57:08.801Z,0
2018-06-14T01:57:34.943Z,0
2018-06-14T01:58:01.080Z,0
2018-06-14T01:58:27.225Z,0
2018-06-14T01:58:53.360Z,0
2018-06-14T01:59:19.500Z,0
2018-06-14T01:59:45.642Z,0
2018-06-14T02:00:11.776Z,0
2018-06-14T02:00:37.947Z,0
2018-06-14T02:01:04.085Z,0
2018-06-14T02:01:30.227Z,0
2018-06-14T02:01:56.391Z,0
2018-06-14T02:02:22.530Z,0
2018-06-14T02:02:48.691Z,0
2018-06-14T02:03:14.833Z,0
2018-06-14T02:03:40.974Z,0
2018-06-14T02:04:07.107Z,0
2018-06-14T02:04:33.248Z,0
2018-06-14T02:04:59.382Z,0
2018-06-14T02:05:25.525Z,0
2018-06-14T02:05:51.679Z,0
2018-06-14T02:06:17.869Z,0
2018-06-14T02:06:44.003Z,0
2018-06-14T02:07:10.192Z,0
2018-06-14T02:07:36.329Z,0
2018-06-14T02:08:02.466Z,0
2018-06-14T02:08:28.602Z,0
2018-06-14T02:08:54.738Z,0
2018-06-14T02:09:20.871Z,0
2018-06-14T02:09:47.010Z,0
2018-06-14T02:10:13.154Z,0
2018-06-14T02:10:39.292Z,0
2018-06-14T02:11:05.428Z,0
2018-06-14T02:11:31.563Z,0
2018-06-14T02:11:57.710Z,0
2018-06-14T02:12:23.851Z,0
2018-06-14T02:12:49.987Z,0
2018-06-14T02:13:16.133Z,0
2018-06-14T02:13:42.295Z,0
2018-06-14T02:14:08.427Z,0
2018-06-14T02:14:34.568Z,0
2018-06-14T02:15:00.705Z,0
2018-06-14T02:15:26.838Z,0
2018-06-14T02:15:52.976Z,0
2018-06-14T02:16:19.109Z,0
2018-06-14T02:16:45.268Z,0
2018-06-14T02:17:11.435Z,0
2018-06-14T02:17:37.573Z,0
2018-06-14T02:18:03.709Z,0
2018-06-14T02:18:29.848Z,0
2018-06-14T02:18:55.982Z,0
2018-06-14T02:19:22.168Z,0
2018-06-14T02:19:48.312Z,0
2018-06-14T02:20:14.441Z,4
2018-06-14T02:20:40.585Z,4
2018-06-14T02:21:06.719Z,4
2018-06-14T02:21:32.863Z,4
2018-06-14T02:21:59.004Z,4
2018-06-14T02:22:25.136Z,4
2018-06-14T02:22:51.303Z,4
2018-06-14T02:23:17.444Z,4
2018-06-14T02:23:43.609Z,0
2018-06-14T02:24:09.744Z,0
2018-06-14T02:24:35.889Z,0
2018-06-14T02:25:02.028Z,0
2018-06-14T02:25:28.164Z,4
2018-06-14T02:25:54.298Z,4
2018-06-14T02:26:20.437Z,4
2018-06-14T02:26:46.599Z,4
2018-06-14T02:27:12.741Z,4
2018-06-14T02:27:38.877Z,4
2018-06-14T02:28:05.043Z,4
2018-06-14T02:28:31.178Z,4
2018-06-14T02:28:57.328Z,4
2018-06-14T02:29:23.554Z,4
2018-06-14T02:29:49.718Z,4
2018-06-14T02:30:15.849Z,4
2018-06-14T02:30:42.012Z,8
2018-06-14T02:31:08.145Z,4
2018-06-14T02:31:34.334Z,4
2018-06-14T02:32:00.490Z,4
2018-06-14T02:32:26.654Z,8
2018-06-14T02:32:52.826Z,8
2018-06-14T02:33:18.992Z,4
2018-06-14T02:33:45.157Z,8
2018-06-14T02:34:11.332Z,8
2018-06-14T02:34:37.476Z,12
2018-06-14T02:35:03.614Z,8
2018-06-14T02:35:29.748Z,8
2018-06-14T02:35:55.889Z,12
2018-06-14T02:36:22.021Z,8
2018-06-14T02:36:48.181Z,12
2018-06-14T02:37:14.339Z,8
2018-06-14T02:37:40.495Z,12
2018-06-14T02:38:06.658Z,16
2018-06-14T02:38:32.841Z,12
2018-06-14T02:38:58.985Z,16
2018-06-14T02:39:25.148Z,16
2018-06-14T02:39:51.329Z,16
2018-06-14T02:40:17.490Z,16
2018-06-14T02:40:43.697Z,16
2018-06-14T02:41:09.870Z,20
2018-06-14T02:41:36.026Z,20
2018-06-14T02:42:02.195Z,20
2018-06-14T02:42:28.353Z,24
2018-06-14T02:42:54.522Z,24
2018-06-14T02:43:20.679Z,24
2018-06-14T02:43:46.845Z,24
2018-06-14T02:44:13.055Z,24
2018-06-14T02:44:39.223Z,28
2018-06-14T02:45:05.363Z,28
2018-06-14T02:45:31.500Z,32
2018-06-14T02:45:57.692Z,32
2018-06-14T02:46:23.878Z,36
2018-06-14T02:46:50.037Z,36
2018-06-14T02:47:16.172Z,40
2018-06-14T02:47:42.309Z,40
2018-06-14T02:48:08.475Z,44
2018-06-14T02:48:34.633Z,48
2018-06-14T02:49:00.780Z,48
2018-06-14T02:49:26.952Z,48
2018-06-14T02:49:53.108Z,52
2018-06-14T02:50:19.276Z,56
2018-06-14T02:50:45.439Z,56
2018-06-14T02:51:11.571Z,60
2018-06-14T02:51:37.755Z,64
2018-06-14T02:52:03.925Z,68
2018-06-14T02:52:30.096Z,72
2018-06-14T02:52:56.236Z,72
2018-06-14T02:53:22.369Z,76
2018-06-14T02:53:48.549Z,84
2018-06-14T02:54:14.687Z,84
2018-06-14T02:54:40.868Z,88
2018-06-14T02:55:07.031Z,96
2018-06-14T02:55:33.195Z,100
2018-06-14T02:55:59.342Z,104
2018-06-14T02:56:25.524Z,108
2018-06-14T02:56:51.659Z,112
2018-06-14T02:57:17.847Z,116
2018-06-14T02:57:44.024Z,124
2018-06-14T02:58:10.208Z,128
2018-06-14T02:58:36.336Z,136
2018-06-14T02:59:02.512Z,140
2018-06-14T02:59:28.679Z,144
2018-06-14T02:59:54.843Z,152
2018-06-14T03:00:21.066Z,156
2018-06-14T03:00:47.373Z,164
2018-06-14T03:01:13.756Z,172
2018-06-14T03:01:39.947Z,180
2018-06-14T03:02:06.213Z,184
2018-06-14T03:02:32.441Z,196
2018-06-14T03:02:58.748Z,204
2018-06-14T03:03:24.978Z,212
2018-06-14T03:03:51.209Z,216
2018-06-14T03:04:17.369Z,228
2018-06-14T03:04:43.537Z,236
2018-06-14T03:05:09.716Z,244
2018-06-14T03:05:35.852Z,256
2018-06-14T03:06:02.035Z,264
2018-06-14T03:06:28.197Z,272
2018-06-14T03:06:54.389Z,284
2018-06-14T03:07:20.572Z,300
2018-06-14T03:07:46.711Z,312
2018-06-14T03:08:12.900Z,320
2018-06-14T03:08:39.060Z,336
2018-06-14T03:09:05.203Z,348
2018-06-14T03:09:31.347Z,364
2018-06-14T03:09:57.531Z,376
2018-06-14T03:10:23.675Z,392
2018-06-14T03:10:49.859Z,404
2018-06-14T03:11:15.999Z,424
2018-06-14T03:11:42.167Z,436
2018-06-14T03:12:08.322Z,448
2018-06-14T03:12:34.533Z,464
2018-06-14T03:13:00.675Z,476
2018-06-14T03:13:26.862Z,492
2018-06-14T03:13:53.003Z,508
2018-06-14T03:14:19.145Z,524
2018-06-14T03:14:45.339Z,544
2018-06-14T03:15:11.501Z,564
2018-06-14T03:15:37.702Z,584
2018-06-14T03:16:03.866Z,604
2018-06-14T03:16:30.064Z,624
2018-06-14T03:16:56.256Z,648
2018-06-14T03:17:22.412Z,668
2018-06-14T03:17:48.552Z,692
2018-06-14T03:18:14.693Z,712
2018-06-14T03:18:40.837Z,736
2018-06-14T03:19:07.011Z,756
2018-06-14T03:19:33.201Z,784
2018-06-14T03:19:59.335Z,812
2018-06-14T03:20:25.480Z,836
2018-06-14T03:20:51.641Z,868
2018-06-14T03:21:17.789Z,900
2018-06-14T03:21:43.962Z,936
2018-06-14T03:22:10.102Z,964
2018-06-14T03:22:36.244Z,1000
2018-06-14T03:23:02.382Z,1028
2018-06-14T03:23:28.536Z,1064
2018-06-14T03:23:54.724Z,1092
2018-06-14T03:24:20.859Z,1120
2018-06-14T03:24:47.001Z,1152
2018-06-14T03:25:13.143Z,1180
2018-06-14T03:25:39.276Z,1204
2018-06-14T03:26:05.418Z,1232
2018-06-14T03:26:31.552Z,1256
2018-06-14T03:26:57.719Z,1284
2018-06-14T03:27:23.861Z,1308
2018-06-14T03:27:49.996Z,1336
2018-06-14T03:28:16.124Z,1360
2018-06-14T03:28:42.296Z,1384
2018-06-14T03:29:08.428Z,1412
2018-06-14T03:29:34.590Z,1436
2018-06-14T03:30:00.785Z,1464
2018-06-14T03:30:26.956Z,1492
2018-06-14T03:30:53.116Z,1520
2018-06-14T03:31:19.278Z,1552
2018-06-14T03:31:45.412Z,1580
2018-06-14T03:32:11.550Z,1612
2018-06-14T03:32:37.684Z,1644
2018-06-14T03:33:03.832Z,1672
2018-06-14T03:33:29.987Z,1704
2018-06-14T03:33:56.121Z,1732
2018-06-14T03:34:22.309Z,1756
2018-06-14T03:34:48.496Z,1784
2018-06-14T03:35:14.633Z,1808
2018-06-14T03:35:40.770Z,1832
2018-06-14T03:36:06.909Z,1856
2018-06-14T03:36:33.069Z,1884
2018-06-14T03:36:59.214Z,1904
2018-06-14T03:37:25.369Z,1932
2018-06-14T03:37:51.510Z,1964
2018-06-14T03:38:17.678Z,1988
2018-06-14T03:38:43.861Z,2020
2018-06-14T03:39:10.005Z,2040
2018-06-14T03:39:36.143Z,2068
2018-06-14T03:40:02.286Z,2092
2018-06-14T03:40:28.422Z,2112
2018-06-14T03:40:54.610Z,2136
2018-06-14T03:41:20.699Z,2164
2018-06-14T03:41:46.835Z,2184
2018-06-14T03:42:12.995Z,2204
2018-06-14T03:42:39.138Z,2228
2018-06-14T03:43:05.276Z,2248
2018-06-14T03:43:31.416Z,2268
2018-06-14T03:43:57.548Z,2284
2018-06-14T03:44:23.688Z,2304
2018-06-14T03:44:49.827Z,2320
2018-06-14T03:45:15.970Z,2340
2018-06-14T03:45:42.104Z,2360
2018-06-14T03:46:08.242Z,2380
2018-06-14T03:46:34.377Z,2400
2018-06-14T03:47:00.540Z,2424
2018-06-14T03:47:26.705Z,2444
2018-06-14T03:47:52.842Z,2472
2018-06-14T03:48:18.978Z,2496
2018-06-14T03:48:45.172Z,2524
2018-06-14T03:49:11.310Z,2544
2018-06-14T03:49:37.471Z,2572
2018-06-14T03:50:03.609Z,2596
2018-06-14T03:50:29.748Z,2620
2018-06-14T03:50:55.901Z,2648
2018-06-14T03:51:22.066Z,2672
2018-06-14T03:51:48.202Z,2700
2018-06-14T03:52:14.348Z,2728
2018-06-14T03:52:40.501Z,2756
2018-06-14T03:53:06.631Z,2788
2018-06-14T03:53:32.771Z,2816
2018-06-14T03:53:58.927Z,2844
2018-06-14T03:54:25.067Z,2872
2018-06-14T03:54:51.238Z,2904
2018-06-14T03:55:17.377Z,2932
2018-06-14T03:55:43.515Z,2956
2018-06-14T03:56:09.684Z,2984
2018-06-14T03:56:35.825Z,3004
2018-06-14T03:57:01.990Z,3024
2018-06-14T03:57:28.152Z,3048
2018-06-14T03:57:54.286Z,3076
2018-06-14T03:58:20.455Z,3104
2018-06-14T03:58:46.585Z,3132
2018-06-14T03:59:12.720Z,3160
2018-06-14T03:59:38.881Z,3192
2018-06-14T04:00:05.020Z,3224
2018-06-14T04:00:31.161Z,3256
2018-06-14T04:00:57.323Z,3284
2018-06-14T04:01:23.462Z,3316
2018-06-14T04:01:49.598Z,3344
2018-06-14T04:02:15.755Z,3372
2018-06-14T04:02:41.901Z,3400
2018-06-14T04:03:08.036Z,3432
2018-06-14T04:03:34.180Z,3456
2018-06-14T04:04:00.377Z,3488
2018-06-14T04:04:26.472Z,3520
2018-06-14T04:04:52.614Z,3548
2018-06-14T04:05:18.754Z,3580
2018-06-14T04:05:44.891Z,3608
2018-06-14T04:06:11.023Z,3640
2018-06-14T04:06:37.164Z,3684
2018-06-14T04:07:03.331Z,3732
2018-06-14T04:07:29.468Z,3800
2018-06-14T04:07:55.649Z,3876
2018-06-14T04:08:21.789Z,3960
2018-06-14T04:08:47.947Z,4044
2018-06-14T04:09:14.085Z,4128
2018-06-14T04:09:40.224Z,4212
2018-06-14T04:10:06.382Z,4296
2018-06-14T04:10:32.523Z,4384
2018-06-14T04:10:58.663Z,4468
2018-06-14T04:11:24.799Z,4544
2018-06-14T04:11:50.932Z,4632
2018-06-14T04:12:17.073Z,4724
2018-06-14T04:12:43.213Z,4824
2018-06-14T04:13:09.350Z,4916
2018-06-14T04:13:35.487Z,5008
2018-06-14T04:14:01.623Z,5100
2018-06-14T04:14:27.761Z,5184
2018-06-14T04:14:53.900Z,5264
2018-06-14T04:15:20.040Z,5340
2018-06-14T04:15:46.190Z,5396
2018-06-14T04:16:12.332Z,5448
2018-06-14T04:16:38.475Z,5512
2018-06-14T04:17:04.609Z,5592
2018-06-14T04:17:30.765Z,5688
2018-06-14T04:17:56.905Z,5776
2018-06-14T04:18:23.046Z,5864
2018-06-14T04:18:49.180Z,5952
2018-06-14T04:19:15.316Z,6036
2018-06-14T04:19:41.456Z,6152
2018-06-14T04:20:07.599Z,6264
2018-06-14T04:20:33.877Z,6388
2018-06-14T04:20:59.896Z,6500
2018-06-14T04:21:26.034Z,6600
2018-06-14T04:21:52.197Z,6672
2018-06-14T04:22:18.358Z,6740
2018-06-14T04:22:44.496Z,6800
2018-06-14T04:23:10.638Z,6848
2018-06-14T04:23:36.783Z,6908
2018-06-14T04:24:02.919Z,6964
2018-06-14T04:24:29.056Z,7020
2018-06-14T04:24:55.194Z,7072
2018-06-14T04:25:21.366Z,7128
2018-06-14T04:25:47.502Z,7176
2018-06-14T04:26:13.635Z,7224
2018-06-14T04:26:39.776Z,7264
2018-06-14T04:27:05.943Z,7292
2018-06-14T04:27:32.065Z,7308
2018-06-14T04:27:58.265Z,7312
2018-06-14T04:28:24.427Z,7304
2018-06-14T04:28:50.562Z,7284
2018-06-14T04:29:16.716Z,7256
2018-06-14T04:29:42.835Z,7224
2018-06-14T04:30:08.982Z,7188
2018-06-14T04:30:35.122Z,7152
2018-06-14T04:31:01.255Z,7116
2018-06-14T04:31:27.397Z,7092
2018-06-14T04:31:53.529Z,7100
2018-06-14T04:32:19.673Z,7128
2018-06-14T04:32:45.813Z,7144
2018-06-14T04:33:11.983Z,7148
2018-06-14T04:33:38.145Z,7164
2018-06-14T04:34:04.292Z,7192
2018-06-14T04:34:30.435Z,7200
2018-06-14T04:34:56.600Z,7224
2018-06-14T04:35:22.738Z,7176
2018-06-14T04:35:48.871Z,7104
2018-06-14T04:36:15.012Z,7092
2018-06-14T04:36:41.147Z,7088
2018-06-14T04:37:07.284Z,7076
2018-06-14T04:37:33.428Z,7156
2018-06-14T04:37:59.558Z,7360
2018-06-14T04:38:25.719Z,8128
2018-06-14T04:38:51.868Z,9412
2018-06-14T04:39:18.002Z,10804
2018-06-14T04:39:44.159Z,12352
2018-06-14T04:40:10.380Z,13244
2018-06-14T04:40:36.445Z,13824
2018-06-14T04:41:02.581Z,14080
2018-06-14T04:41:28.750Z,13984
2018-06-14T04:41:54.921Z,14176
2018-06-14T04:42:21.055Z,14624
2018-06-14T04:42:47.190Z,15040
2018-06-14T04:43:13.355Z,15552
2018-06-14T04:43:39.493Z,15488
2018-06-14T04:44:05.660Z,15936
2018-06-14T04:44:31.825Z,16352
2018-06-14T04:44:57.963Z,16864
2018-06-14T04:45:24.133Z,16960
2018-06-14T04:45:50.306Z,16960
2018-06-14T04:46:16.424Z,16768
2018-06-14T04:46:42.568Z,16544
2018-06-14T04:47:08.705Z,17024
2018-06-14T04:47:34.840Z,17952
2018-06-14T04:48:01.008Z,18624
2018-06-14T04:48:27.153Z,19168
2018-06-14T04:48:53.292Z,19904
2018-06-14T04:49:19.457Z,20224
2018-06-14T04:49:45.643Z,20352
2018-06-14T04:50:11.836Z,20480
2018-06-14T04:50:37.977Z,20160
2018-06-14T04:51:04.145Z,19552
2018-06-14T04:51:30.272Z,18912
2018-06-14T04:51:56.413Z,19136
2018-06-14T04:52:22.578Z,19200
2018-06-14T04:52:48.715Z,19104
2018-06-14T04:53:14.854Z,19296
2018-06-14T04:53:41.026Z,19744
2018-06-14T04:54:07.172Z,20160
2018-06-14T04:54:33.311Z,20480
2018-06-14T04:54:59.449Z,21632
2018-06-14T04:55:25.595Z,22304
2018-06-14T04:55:51.727Z,22624
2018-06-14T04:56:17.894Z,22848
2018-06-14T04:56:44.025Z,23200
2018-06-14T04:57:10.165Z,23808
2018-06-14T04:57:36.299Z,24512
2018-06-14T04:58:02.444Z,25056
2018-06-14T04:58:28.582Z,25632
2018-06-14T04:58:54.725Z,26208
2018-06-14T04:59:20.866Z,26464
2018-06-14T04:59:47.028Z,26944
2018-06-14T05:00:13.164Z,27168
2018-06-14T05:00:39.309Z,26880
2018-06-14T05:01:05.469Z,26784
2018-06-14T05:01:31.640Z,26272
2018-06-14T05:01:57.781Z,25792
2018-06-14T05:02:23.974Z,26048
2018-06-14T05:02:50.083Z,26720
2018-06-14T05:03:16.240Z,27200
2018-06-14T05:03:42.385Z,24960
2018-06-14T05:04:08.524Z,21856
2018-06-14T05:04:34.664Z,25728
2018-06-14T05:05:00.805Z,26400
2018-06-14T05:05:26.946Z,26304
2018-06-14T05:05:53.084Z,26656
2018-06-14T05:06:19.227Z,27008
2018-06-14T05:06:45.397Z,27648
2018-06-14T05:07:11.540Z,27584
2018-06-14T05:07:37.704Z,27456
2018-06-14T05:08:03.847Z,27040
2018-06-14T05:08:29.989Z,26304
2018-06-14T05:08:56.163Z,25472
2018-06-14T05:09:22.328Z,24032
2018-06-14T05:09:48.470Z,22880
2018-06-14T05:10:14.611Z,21216
2018-06-14T05:10:40.778Z,19584
2018-06-14T05:11:06.915Z,17696
2018-06-14T05:11:33.059Z,15744
2018-06-14T05:11:59.239Z,13648
2018-06-14T05:12:25.390Z,11752
2018-06-14T05:12:51.566Z,10384
2018-06-14T05:13:17.725Z,9752
2018-06-14T05:13:43.873Z,9660
2018-06-14T05:14:10.006Z,9612
2018-06-14T05:14:36.153Z,9580
2018-06-14T05:15:02.298Z,9536
2018-06-14T05:15:28.439Z,9512
2018-06-14T05:15:54.578Z,9524
2018-06-14T05:16:20.744Z,9544
2018-06-14T05:16:46.883Z,9516
2018-06-14T05:17:13.042Z,9476
2018-06-14T05:17:39.219Z,9436
2018-06-14T05:18:05.419Z,9404
2018-06-14T05:18:31.532Z,9368
2018-06-14T05:18:57.675Z,9268
2018-06-14T05:19:23.809Z,9236
2018-06-14T05:19:49.951Z,9176
2018-06-14T05:20:16.098Z,9080
2018-06-14T05:20:42.244Z,8884
2018-06-14T05:21:08.386Z,8728
2018-06-14T05:21:34.546Z,8632
2018-06-14T05:22:00.683Z,8592
2018-06-14T05:22:26.855Z,8540
2018-06-14T05:22:52.997Z,8460
2018-06-14T05:23:19.141Z,8468
2018-06-14T05:23:45.285Z,8472
2018-06-14T05:24:11.423Z,8500
2018-06-14T05:24:37.563Z,8560
2018-06-14T05:25:03.724Z,8680
2018-06-14T05:25:29.889Z,8760
2018-06-14T05:25:56.032Z,8768
2018-06-14T05:26:22.195Z,8724
2018-06-14T05:26:48.389Z,8692
2018-06-14T05:27:14.532Z,8652
2018-06-14T05:27:40.671Z,8648
2018-06-14T05:28:06.809Z,8624
2018-06-14T05:28:32.953Z,8604
2018-06-14T05:28:59.089Z,8612
2018-06-14T05:29:25.231Z,8648
2018-06-14T05:29:51.378Z,8688
2018-06-14T05:30:17.537Z,8752
2018-06-14T05:30:43.695Z,8740
2018-06-14T05:31:09.837Z,8684
2018-06-14T05:31:35.989Z,8696
2018-06-14T05:32:02.127Z,8760
2018-06-14T05:32:28.296Z,8816
2018-06-14T05:32:54.437Z,8808
2018-06-14T05:33:20.576Z,8772
2018-06-14T05:33:46.711Z,8792
2018-06-14T05:34:12.877Z,8796
2018-06-14T05:34:39.015Z,8860
2018-06-14T05:35:05.152Z,8868
2018-06-14T05:35:31.296Z,8884
2018-06-14T05:35:57.439Z,8932
2018-06-14T05:36:23.604Z,8944
2018-06-14T05:36:49.772Z,8972
2018-06-14T05:37:15.910Z,9016
2018-06-14T05:37:42.049Z,9096
2018-06-14T05:38:08.221Z,8980
2018-06-14T05:38:34.364Z,9200
2018-06-14T05:39:00.510Z,9248
2018-06-14T05:39:26.643Z,9276
2018-06-14T05:39:52.784Z,9320
2018-06-14T05:40:18.923Z,9336
2018-06-14T05:40:45.067Z,9380
2018-06-14T05:41:11.202Z,9412
2018-06-14T05:41:37.370Z,9448
2018-06-14T05:42:03.506Z,9476
2018-06-14T05:42:29.736Z,9508
2018-06-14T05:42:55.811Z,9528
2018-06-14T05:43:22.000Z,9544
2018-06-14T05:43:48.136Z,9544
2018-06-14T05:44:14.276Z,9540
2018-06-14T05:44:40.502Z,9588
2018-06-14T05:45:06.558Z,9632
2018-06-14T05:45:32.697Z,9652
2018-06-14T05:45:58.857Z,9688
2018-06-14T05:46:25.023Z,9740
2018-06-14T05:46:51.185Z,9804
2018-06-14T05:47:17.329Z,9848
2018-06-14T05:47:43.518Z,9880
2018-06-14T05:48:09.623Z,9900
2018-06-14T05:48:35.759Z,9896
2018-06-14T05:49:01.903Z,9896
2018-06-14T05:49:28.041Z,9916
2018-06-14T05:49:54.182Z,9892
2018-06-14T05:50:20.330Z,9840
2018-06-14T05:50:46.486Z,9844
2018-06-14T05:51:12.626Z,9892
2018-06-14T05:51:38.770Z,9944
2018-06-14T05:52:04.907Z,10008
2018-06-14T05:52:31.052Z,10080
2018-06-14T05:52:57.188Z,10124
2018-06-14T05:53:23.322Z,10160
2018-06-14T05:53:49.465Z,10196
2018-06-14T05:54:15.602Z,10240
2018-06-14T05:54:41.745Z,10332
2018-06-14T05:55:07.882Z,10360
2018-06-14T05:55:34.025Z,10052
2018-06-14T05:56:00.185Z,10108
2018-06-14T05:56:26.323Z,10192
2018-06-14T05:56:52.481Z,10432
2018-06-14T05:57:18.656Z,10616
2018-06-14T05:57:44.797Z,10756
2018-06-14T05:58:10.984Z,10864
2018-06-14T05:58:37.129Z,10940
2018-06-14T05:59:03.267Z,11060
2018-06-14T05:59:29.404Z,11152
2018-06-14T05:59:55.568Z,11180
2018-06-14T06:00:21.735Z,11332
2018-06-14T06:00:47.874Z,11368
2018-06-14T06:01:14.012Z,11412
2018-06-14T06:01:40.153Z,11436
2018-06-14T06:02:06.284Z,11412
2018-06-14T06:02:32.427Z,11440
2018-06-14T06:02:58.587Z,11516
2018-06-14T06:03:24.749Z,11520
2018-06-14T06:03:50.889Z,11468
2018-06-14T06:04:17.037Z,11400